Time,TemperatureF,DewpointF,PressureIn,WindDirection,WindDirectionDegrees,WindSpeedMPH,WindSpeedGustMPH,Humidity,HourlyPrecipIn,Conditions,Clouds,dailyrainin,SoftwareType,DateUTC
2013-02-14 00:01:00,29.6,26.3,-100.00,North,-999,-999.0,-999.0,86,-99.99,,,-99.99,WSDL version 420,2013-02-14 07:01:00,
2013-02-14 00:06:00,29.5,26.1,-100.00,North,-999,-999.0,-999.0,86,-99.99,,,-99.99,WSDL version 420,2013-02-14 07:06:00,
2013-02-14 00:11:00,29.3,25.9,-100.00,North,-999,-999.0,-999.0,84,-99.99,,,-99.99,WSDL version 420,2013-02-14 07:11:00,
2013-02-14 00:16:00,29.3,25.4,-100.00,North,-999,-999.0,-999.0,82,-99.99,,,-99.99,WSDL version 420,2013-02-14 07:16:00,
2013-02-14 00:21:00,29.4,24.9,-100.00,North,-999,-999.0,-999.0,80,-99.99,,,-99.99,WSDL version 420,2013-02-14 07:21:00,
2013-02-14 00:26:00,29.5,24.6,-100.00,North,-999,-999.0,-999.0,79,-99.99,,,-99.99,WSDL version 420,2013-02-14 07:26:00,
2013-02-14 00:31:00,29.5,24.3,-100.00,North,-999,-999.0,-999.0,78,-99.99,,,-99.99,WSDL version 420,2013-02-14 07:31:00,
2013-02-14 00:36:00,29.7,23.9,-100.00,North,-999,-999.0,-999.0,76,-99.99,,,-99.99,WSDL version 420,2013-02-14 07:36:00,
2013-02-14 00:41:00,29.8,23.6,-100.00,North,-999,-999.0,-999.0,75,-99.99,,,-99.99,WSDL version 420,2013-02-14 07:41:00,
2013-02-14 00:46:00,29.8,23.1,-100.00,North,-999,-999.0,-999.0,71,-99.99,,,-99.99,WSDL version 420,2013-02-14 07:46:00,
2013-02-14 00:51:00,29.8,22.3,-100.00,North,-999,-999.0,-999.0,69,-99.99,,,-99.99,WSDL version 420,2013-02-14 07:51:00,
2013-02-14 00:56:00,29.8,21.8,-100.00,North,-999,-999.0,-999.0,68,-99.99,,,-99.99,WSDL version 420,2013-02-14 07:56:00,
2013-02-14 01:01:00,29.8,21.6,-100.00,North,-999,-999.0,-999.0,68,-99.99,,,-99.99,WSDL version 420,2013-02-14 08:01:00,
2013-02-14 01:13:00,29.5,21.9,-100.00,North,-999,-999.0,-999.0,70,-99.99,,,-99.99,WSDL version 420,2013-02-14 08:13:00,
2013-02-14 01:18:00,29.5,21.9,-100.00,North,-999,-999.0,-999.0,70,-99.99,,,-99.99,WSDL version 420,2013-02-14 08:18:00,
2013-02-14 01:23:00,29.5,22.1,-100.00,North,-999,-999.0,-999.0,73,-99.99,,,-99.99,WSDL version 420,2013-02-14 08:23:00,
2013-02-14 01:28:00,29.3,22.3,-100.00,North,-999,-999.0,-999.0,71,-99.99,,,-99.99,WSDL version 420,2013-02-14 08:28:00,
2013-02-14 01:33:00,29.4,22.0,-100.00,North,-999,-999.0,-999.0,70,-99.99,,,-99.99,WSDL version 420,2013-02-14 08:33:00,
2013-02-14 01:38:00,29.3,21.7,-100.00,North,-999,-999.0,-999.0,70,-99.99,,,-99.99,WSDL version 420,2013-02-14 08:38:00,
2013-02-14 01:43:00,29.3,21.3,-100.00,North,-999,-999.0,-999.0,68,-99.99,,,-99.99,WSDL version 420,2013-02-14 08:43:00,
2013-02-14 01:48:00,29.3,21.1,-100.00,North,-999,-999.0,-999.0,68,-99.99,,,-99.99,WSDL version 420,2013-02-14 08:48:00,
2013-02-14 01:53:00,29.3,21.1,-100.00,North,-999,-999.0,-999.0,68,-99.99,,,-99.99,WSDL version 420,2013-02-14 08:53:00,
2013-02-14 01:58:00,29.3,20.9,-100.00,North,-999,-999.0,-999.0,67,-99.99,,,-99.99,WSDL version 420,2013-02-14 08:58:00,
2013-02-14 02:13:00,29.1,20.6,-100.00,North,-999,-999.0,-999.0,67,-99.99,,,-99.99,WSDL version 420,2013-02-14 09:13:00,
2013-02-14 02:18:00,29.1,20.5,-100.00,North,-999,-999.0,-999.0,66,-99.99,,,-99.99,WSDL version 420,2013-02-14 09:18:00,
2013-02-14 02:23:00,29.1,20.3,-100.00,North,-999,-999.0,-999.0,66,-99.99,,,-99.99,WSDL version 420,2013-02-14 09:23:00,
2013-02-14 02:28:00,29.1,20.0,-100.00,North,-999,-999.0,-999.0,65,-99.99,,,-99.99,WSDL version 420,2013-02-14 09:28:00,
2013-02-14 02:33:00,29.1,19.8,-100.00,North,-999,-999.0,-999.0,64,-99.99,,,-99.99,WSDL version 420,2013-02-14 09:33:00,
2013-02-14 02:38:00,29.1,19.7,-100.00,North,-999,-999.0,-999.0,64,-99.99,,,-99.99,WSDL version 420,2013-02-14 09:38:00,
2013-02-14 02:43:00,29.1,19.7,-100.00,North,-999,-999.0,-999.0,64,-99.99,,,-99.99,WSDL version 420,2013-02-14 09:43:00,
2013-02-14 02:48:00,29.1,19.7,-100.00,North,-999,-999.0,-999.0,64,-99.99,,,-99.99,WSDL version 420,2013-02-14 09:48:00,
2013-02-14 02:53:00,29.1,19.4,-100.00,North,-999,-999.0,-999.0,63,-99.99,,,-99.99,WSDL version 420,2013-02-14 09:53:00,
2013-02-14 02:58:00,29.1,19.3,-100.00,North,-999,-999.0,-999.0,63,-99.99,,,-99.99,WSDL version 420,2013-02-14 09:58:00,
2013-02-14 03:13:00,29.3,18.8,-100.00,North,-999,-999.0,-999.0,61,-99.99,,,-99.99,WSDL version 420,2013-02-14 10:13:00,
2013-02-14 03:18:00,29.3,18.8,-100.00,North,-999,-999.0,-999.0,61,-99.99,,,-99.99,WSDL version 420,2013-02-14 10:18:00,
2013-02-14 03:23:00,29.2,18.8,-100.00,North,-999,-999.0,-999.0,61,-99.99,,,-99.99,WSDL version 420,2013-02-14 10:23:00,
2013-02-14 03:28:00,29.1,18.7,-100.00,North,-999,-999.0,-999.0,61,-99.99,,,-99.99,WSDL version 420,2013-02-14 10:28:00,
2013-02-14 03:33:00,29.1,18.7,-100.00,North,-999,-999.0,-999.0,61,-99.99,,,-99.99,WSDL version 420,2013-02-14 10:33:00,
2013-02-14 03:38:00,28.9,18.5,-100.00,North,-999,-999.0,-999.0,61,-99.99,,,-99.99,WSDL version 420,2013-02-14 10:38:00,
2013-02-14 03:43:00,28.9,18.8,-100.00,North,-999,-999.0,-999.0,62,-99.99,,,-99.99,WSDL version 420,2013-02-14 10:43:00,
2013-02-14 03:48:00,28.9,18.8,-100.00,North,-999,-999.0,-999.0,62,-99.99,,,-99.99,WSDL version 420,2013-02-14 10:48:00,
2013-02-14 03:53:00,28.9,18.8,-100.00,North,-999,-999.0,-999.0,62,-99.99,,,-99.99,WSDL version 420,2013-02-14 10:53:00,
2013-02-14 03:58:00,28.8,18.7,-100.00,North,-999,-999.0,-999.0,62,-99.99,,,-99.99,WSDL version 420,2013-02-14 10:58:00,
2013-02-14 04:03:00,28.7,18.6,-100.00,North,-999,-999.0,-999.0,62,-99.99,,,-99.99,WSDL version 420,2013-02-14 11:03:00,
2013-02-14 04:08:00,28.6,18.5,-100.00,North,-999,-999.0,-999.0,62,-99.99,,,-99.99,WSDL version 420,2013-02-14 11:08:00,
2013-02-14 04:14:00,28.5,18.4,-100.00,North,-999,-999.0,-999.0,62,-99.99,,,-99.99,WSDL version 420,2013-02-14 11:14:00,
2013-02-14 04:18:00,28.4,18.6,-100.00,North,-999,-999.0,-999.0,63,-99.99,,,-99.99,WSDL version 420,2013-02-14 11:18:00,
2013-02-14 04:23:00,28.4,18.6,-100.00,North,-999,-999.0,-999.0,62,-99.99,,,-99.99,WSDL version 420,2013-02-14 11:23:00,
2013-02-14 04:28:00,28.4,18.6,-100.00,North,-999,-999.0,-999.0,63,-99.99,,,-99.99,WSDL version 420,2013-02-14 11:28:00,
2013-02-14 04:33:00,28.4,18.5,-100.00,North,-999,-999.0,-999.0,62,-99.99,,,-99.99,WSDL version 420,2013-02-14 11:33:00,
2013-02-14 04:38:00,28.4,18.4,-100.00,North,-999,-999.0,-999.0,62,-99.99,,,-99.99,WSDL version 420,2013-02-14 11:38:00,
2013-02-14 04:44:00,28.6,18.5,-100.00,North,-999,-999.0,-999.0,62,-99.99,,,-99.99,WSDL version 420,2013-02-14 11:44:00,
2013-02-14 04:48:00,28.6,18.2,-100.00,North,-999,-999.0,-999.0,61,-99.99,,,-99.99,WSDL version 420,2013-02-14 11:48:00,
2013-02-14 04:53:00,28.6,18.2,-100.00,North,-999,-999.0,-999.0,61,-99.99,,,-99.99,WSDL version 420,2013-02-14 11:53:00,
2013-02-14 04:58:00,28.6,18.2,-100.00,North,-999,-999.0,-999.0,61,-99.99,,,-99.99,WSDL version 420,2013-02-14 11:58:00,
2013-02-14 05:03:00,28.6,18.2,-100.00,North,-999,-999.0,-999.0,61,-99.99,,,-99.99,WSDL version 420,2013-02-14 12:03:00,
2013-02-14 05:08:00,28.6,18.2,-100.00,North,-999,-999.0,-999.0,61,-99.99,,,-99.99,WSDL version 420,2013-02-14 12:08:00,
2013-02-14 05:13:00,28.6,18.2,-100.00,North,-999,-999.0,-999.0,61,-99.99,,,-99.99,WSDL version 420,2013-02-14 12:13:00,
2013-02-14 05:18:00,28.6,18.2,-100.00,North,-999,-999.0,-999.0,61,-99.99,,,-99.99,WSDL version 420,2013-02-14 12:18:00,
2013-02-14 05:23:00,28.4,18.0,-100.00,North,-999,-999.0,-999.0,61,-99.99,,,-99.99,WSDL version 420,2013-02-14 12:23:00,
2013-02-14 05:28:00,28.4,18.0,-100.00,North,-999,-999.0,-999.0,61,-99.99,,,-99.99,WSDL version 420,2013-02-14 12:28:00,
2013-02-14 05:34:00,28.2,18.0,-100.00,North,-999,-999.0,-999.0,62,-99.99,,,-99.99,WSDL version 420,2013-02-14 12:34:00,
2013-02-14 05:38:00,28.2,18.0,-100.00,North,-999,-999.0,-999.0,61,-99.99,,,-99.99,WSDL version 420,2013-02-14 12:38:00,
2013-02-14 05:44:00,28.2,17.8,-100.00,North,-999,-999.0,-999.0,61,-99.99,,,-99.99,WSDL version 420,2013-02-14 12:44:00,
2013-02-14 05:48:00,28.1,17.7,-100.00,North,-999,-999.0,-999.0,61,-99.99,,,-99.99,WSDL version 420,2013-02-14 12:48:00,
2013-02-14 05:54:00,28.0,17.6,-100.00,North,-999,-999.0,-999.0,61,-99.99,,,-99.99,WSDL version 420,2013-02-14 12:54:00,
2013-02-14 05:58:00,28.0,17.6,-100.00,North,-999,-999.0,-999.0,61,-99.99,,,-99.99,WSDL version 420,2013-02-14 12:58:00,
2013-02-14 06:03:00,28.0,17.6,-100.00,North,-999,-999.0,-999.0,61,-99.99,,,-99.99,WSDL version 420,2013-02-14 13:03:00,
2013-02-14 06:09:00,27.9,17.5,-100.00,North,-999,-999.0,-999.0,61,-99.99,,,-99.99,WSDL version 420,2013-02-14 13:09:00,
2013-02-14 06:13:00,27.9,17.5,-100.00,North,-999,-999.0,-999.0,61,-99.99,,,-99.99,WSDL version 420,2013-02-14 13:13:00,
2013-02-14 06:18:00,27.9,17.5,-100.00,North,-999,-999.0,-999.0,61,-99.99,,,-99.99,WSDL version 420,2013-02-14 13:18:00,
2013-02-14 06:23:00,27.9,17.5,-100.00,North,-999,-999.0,-999.0,61,-99.99,,,-99.99,WSDL version 420,2013-02-14 13:23:00,
2013-02-14 06:28:00,27.9,17.5,-100.00,North,-999,-999.0,-999.0,61,-99.99,,,-99.99,WSDL version 420,2013-02-14 13:28:00,
2013-02-14 06:33:00,27.9,17.3,-100.00,North,-999,-999.0,-999.0,60,-99.99,,,-99.99,WSDL version 420,2013-02-14 13:33:00,
2013-02-14 06:38:00,27.9,17.1,-100.00,North,-999,-999.0,-999.0,60,-99.99,,,-99.99,WSDL version 420,2013-02-14 13:38:00,
2013-02-14 06:43:00,27.9,17.1,-100.00,North,-999,-999.0,-999.0,60,-99.99,,,-99.99,WSDL version 420,2013-02-14 13:43:00,
2013-02-14 06:48:00,27.9,17.1,-100.00,North,-999,-999.0,-999.0,60,-99.99,,,-99.99,WSDL version 420,2013-02-14 13:48:00,
2013-02-14 06:54:00,27.9,17.1,-100.00,North,-999,-999.0,-999.0,60,-99.99,,,-99.99,WSDL version 420,2013-02-14 13:54:00,
2013-02-14 06:59:00,27.9,17.1,-100.00,North,-999,-999.0,-999.0,60,-99.99,,,-99.99,WSDL version 420,2013-02-14 13:59:00,
2013-02-14 07:04:00,27.9,17.1,-100.00,North,-999,-999.0,-999.0,60,-99.99,,,-99.99,WSDL version 420,2013-02-14 14:04:00,
2013-02-14 07:09:00,27.9,17.1,-100.00,North,-999,-999.0,-999.0,60,-99.99,,,-99.99,WSDL version 420,2013-02-14 14:09:00,
2013-02-14 07:14:00,27.9,16.8,-100.00,North,-999,-999.0,-999.0,59,-99.99,,,-99.99,WSDL version 420,2013-02-14 14:14:00,
2013-02-14 07:19:00,27.9,16.8,-100.00,North,-999,-999.0,-999.0,59,-99.99,,,-99.99,WSDL version 420,2013-02-14 14:19:00,
2013-02-14 07:25:00,27.9,16.8,-100.00,North,-999,-999.0,-999.0,59,-99.99,,,-99.99,WSDL version 420,2013-02-14 14:25:00,
2013-02-14 07:30:00,27.9,16.8,-100.00,North,-999,-999.0,-999.0,59,-99.99,,,-99.99,WSDL version 420,2013-02-14 14:30:00,
2013-02-14 07:35:00,27.9,16.8,-100.00,North,-999,-999.0,-999.0,59,-99.99,,,-99.99,WSDL version 420,2013-02-14 14:35:00,
2013-02-14 07:40:00,27.9,16.8,-100.00,North,-999,-999.0,-999.0,59,-99.99,,,-99.99,WSDL version 420,2013-02-14 14:40:00,
2013-02-14 07:45:00,27.9,16.8,-100.00,North,-999,-999.0,-999.0,59,-99.99,,,-99.99,WSDL version 420,2013-02-14 14:45:00,
2013-02-14 07:50:00,27.9,16.8,-100.00,North,-999,-999.0,-999.0,59,-99.99,,,-99.99,WSDL version 420,2013-02-14 14:50:00,
2013-02-14 07:55:00,27.9,16.7,-100.00,North,-999,-999.0,-999.0,59,-99.99,,,-99.99,WSDL version 420,2013-02-14 14:55:00,
2013-02-14 08:00:00,27.9,16.5,-100.00,North,-999,-999.0,-999.0,58,-99.99,,,-99.99,WSDL version 420,2013-02-14 15:00:00,
2013-02-14 08:05:00,28.0,16.6,-100.00,North,-999,-999.0,-999.0,58,-99.99,,,-99.99,WSDL version 420,2013-02-14 15:05:00,
2013-02-14 08:10:00,28.1,16.6,-100.00,North,-999,-999.0,-999.0,58,-99.99,,,-99.99,WSDL version 420,2013-02-14 15:10:00,
2013-02-14 08:15:00,28.2,16.8,-100.00,North,-999,-999.0,-999.0,58,-99.99,,,-99.99,WSDL version 420,2013-02-14 15:15:00,
2013-02-14 08:20:00,28.2,16.8,-100.00,North,-999,-999.0,-999.0,58,-99.99,,,-99.99,WSDL version 420,2013-02-14 15:20:00,
2013-02-14 08:25:00,28.4,16.9,-100.00,North,-999,-999.0,-999.0,58,-99.99,,,-99.99,WSDL version 420,2013-02-14 15:25:00,
2013-02-14 08:30:00,28.6,16.8,-100.00,North,-999,-999.0,-999.0,57,-99.99,,,-99.99,WSDL version 420,2013-02-14 15:30:00,
2013-02-14 08:35:00,28.6,16.8,-100.00,North,-999,-999.0,-999.0,57,-99.99,,,-99.99,WSDL version 420,2013-02-14 15:35:00,
2013-02-14 08:40:00,28.7,16.9,-100.00,North,-999,-999.0,-999.0,57,-99.99,,,-99.99,WSDL version 420,2013-02-14 15:40:00,
2013-02-14 08:45:00,28.9,17.1,-100.00,North,-999,-999.0,-999.0,57,-99.99,,,-99.99,WSDL version 420,2013-02-14 15:45:00,
2013-02-14 08:50:00,29.2,17.3,-100.00,North,-999,-999.0,-999.0,57,-99.99,,,-99.99,WSDL version 420,2013-02-14 15:50:00,
2013-02-14 08:55:00,29.4,17.2,-100.00,North,-999,-999.0,-999.0,56,-99.99,,,-99.99,WSDL version 420,2013-02-14 15:55:00,
2013-02-14 09:00:00,29.5,17.2,-100.00,North,-999,-999.0,-999.0,56,-99.99,,,-99.99,WSDL version 420,2013-02-14 16:00:00,
2013-02-14 09:13:00,30.2,17.9,-100.00,North,-999,-999.0,-999.0,56,-99.99,,,-99.99,WSDL version 420,2013-02-14 16:13:00,
2013-02-14 09:18:00,30.4,17.8,-100.00,North,-999,-999.0,-999.0,55,-99.99,,,-99.99,WSDL version 420,2013-02-14 16:18:00,
2013-02-14 09:23:00,30.6,17.9,-100.00,North,-999,-999.0,-999.0,55,-99.99,,,-99.99,WSDL version 420,2013-02-14 16:23:00,
2013-02-14 09:28:00,30.8,18.2,-100.00,North,-999,-999.0,-999.0,55,-99.99,,,-99.99,WSDL version 420,2013-02-14 16:28:00,
2013-02-14 09:33:00,31.0,18.3,-100.00,North,-999,-999.0,-999.0,55,-99.99,,,-99.99,WSDL version 420,2013-02-14 16:33:00,
2013-02-14 09:38:00,31.2,18.4,-100.00,North,-999,-999.0,-999.0,54,-99.99,,,-99.99,WSDL version 420,2013-02-14 16:38:00,
2013-02-14 09:43:00,31.3,18.2,-100.00,North,-999,-999.0,-999.0,54,-99.99,,,-99.99,WSDL version 420,2013-02-14 16:43:00,
2013-02-14 09:48:00,31.5,18.4,-100.00,North,-999,-999.0,-999.0,54,-99.99,,,-99.99,WSDL version 420,2013-02-14 16:48:00,
2013-02-14 09:53:00,31.7,18.6,-100.00,North,-999,-999.0,-999.0,54,-99.99,,,-99.99,WSDL version 420,2013-02-14 16:53:00,
2013-02-14 09:58:00,32.0,18.9,-100.00,North,-999,-999.0,-999.0,54,-99.99,,,-99.99,WSDL version 420,2013-02-14 16:58:00,
2013-02-14 10:03:00,32.1,18.1,-100.00,North,-999,-999.0,-999.0,54,-99.99,,,-99.99,WSDL version 420,2013-02-14 17:03:00,
2013-02-14 10:08:00,32.2,17.5,-100.00,North,-999,-999.0,-999.0,54,-99.99,,,-99.99,WSDL version 420,2013-02-14 17:08:00,
2013-02-14 10:13:00,32.5,17.7,-100.00,North,-999,-999.0,-999.0,54,-99.99,,,-99.99,WSDL version 420,2013-02-14 17:13:00,
2013-02-14 10:18:00,32.7,17.5,-100.00,North,-999,-999.0,-999.0,53,-99.99,,,-99.99,WSDL version 420,2013-02-14 17:18:00,
2013-02-14 10:23:00,32.8,17.6,-100.00,North,-999,-999.0,-999.0,53,-99.99,,,-99.99,WSDL version 420,2013-02-14 17:23:00,
2013-02-14 10:28:00,33.1,17.8,-100.00,North,-999,-999.0,-999.0,53,-99.99,,,-99.99,WSDL version 420,2013-02-14 17:28:00,
2013-02-14 10:33:00,33.4,18.1,-100.00,North,-999,-999.0,-999.0,53,-99.99,,,-99.99,WSDL version 420,2013-02-14 17:33:00,
2013-02-14 10:38:00,33.6,18.3,-100.00,North,-999,-999.0,-999.0,53,-99.99,,,-99.99,WSDL version 420,2013-02-14 17:38:00,
2013-02-14 10:43:00,33.8,18.5,-100.00,North,-999,-999.0,-999.0,53,-99.99,,,-99.99,WSDL version 420,2013-02-14 17:43:00,
2013-02-14 10:48:00,34.1,18.7,-100.00,North,-999,-999.0,-999.0,53,-99.99,,,-99.99,WSDL version 420,2013-02-14 17:48:00,
2013-02-14 10:53:00,34.4,18.7,-100.00,North,-999,-999.0,-999.0,52,-99.99,,,-99.99,WSDL version 420,2013-02-14 17:53:00,
2013-02-14 10:58:00,34.5,18.7,-100.00,North,-999,-999.0,-999.0,52,-99.99,,,-99.99,WSDL version 420,2013-02-14 17:58:00,
2013-02-14 11:03:00,34.6,18.8,-100.00,North,-999,-999.0,-999.0,52,-99.99,,,-99.99,WSDL version 420,2013-02-14 18:03:00,
2013-02-14 11:08:00,34.7,18.9,-100.00,North,-999,-999.0,-999.0,52,-99.99,,,-99.99,WSDL version 420,2013-02-14 18:08:00,
2013-02-14 11:13:00,34.5,18.7,-100.00,North,-999,-999.0,-999.0,52,-99.99,,,-99.99,WSDL version 420,2013-02-14 18:13:00,
2013-02-14 11:18:00,34.5,18.7,-100.00,North,-999,-999.0,-999.0,52,-99.99,,,-99.99,WSDL version 420,2013-02-14 18:18:00,
2013-02-14 11:23:00,34.4,18.6,-100.00,North,-999,-999.0,-999.0,52,-99.99,,,-99.99,WSDL version 420,2013-02-14 18:23:00,
2013-02-14 11:28:00,34.5,18.5,-100.00,North,-999,-999.0,-999.0,52,-99.99,,,-99.99,WSDL version 420,2013-02-14 18:28:00,
2013-02-14 11:33:00,34.5,18.4,-100.00,North,-999,-999.0,-999.0,51,-99.99,,,-99.99,WSDL version 420,2013-02-14 18:33:00,
2013-02-14 11:39:00,34.6,18.3,-100.00,North,-999,-999.0,-999.0,51,-99.99,,,-99.99,WSDL version 420,2013-02-14 18:39:00,
2013-02-14 11:44:00,34.7,18.4,-100.00,North,-999,-999.0,-999.0,51,-99.99,,,-99.99,WSDL version 420,2013-02-14 18:44:00,
2013-02-14 11:49:00,34.9,18.6,-100.00,North,-999,-999.0,-999.0,51,-99.99,,,-99.99,WSDL version 420,2013-02-14 18:49:00,
2013-02-14 11:54:00,34.9,18.6,-100.00,North,-999,-999.0,-999.0,51,-99.99,,,-99.99,WSDL version 420,2013-02-14 18:54:00,
2013-02-14 11:59:00,35.0,18.7,-100.00,North,-999,-999.0,-999.0,51,-99.99,,,-99.99,WSDL version 420,2013-02-14 18:59:00,
2013-02-14 12:04:00,35.2,18.9,-100.00,North,-999,-999.0,-999.0,51,-99.99,,,-99.99,WSDL version 420,2013-02-14 19:04:00,
2013-02-14 12:09:00,35.2,18.9,-100.00,North,-999,-999.0,-999.0,51,-99.99,,,-99.99,WSDL version 420,2013-02-14 19:09:00,
2013-02-14 12:15:00,35.3,19.0,-100.00,North,-999,-999.0,-999.0,51,-99.99,,,-99.99,WSDL version 420,2013-02-14 19:15:00,
2013-02-14 12:20:00,35.5,19.1,-100.00,North,-999,-999.0,-999.0,51,-99.99,,,-99.99,WSDL version 420,2013-02-14 19:20:00,
2013-02-14 12:25:00,35.8,19.4,-100.00,North,-999,-999.0,-999.0,51,-99.99,,,-99.99,WSDL version 420,2013-02-14 19:25:00,
2013-02-14 12:30:00,36.0,19.3,-100.00,North,-999,-999.0,-999.0,50,-99.99,,,-99.99,WSDL version 420,2013-02-14 19:30:00,
2013-02-14 12:35:00,35.9,19.1,-100.00,North,-999,-999.0,-999.0,50,-99.99,,,-99.99,WSDL version 420,2013-02-14 19:35:00,
2013-02-14 12:40:00,35.9,19.1,-100.00,North,-999,-999.0,-999.0,50,-99.99,,,-99.99,WSDL version 420,2013-02-14 19:40:00,
2013-02-14 12:45:00,36.0,19.1,-100.00,North,-999,-999.0,-999.0,50,-99.99,,,-99.99,WSDL version 420,2013-02-14 19:45:00,
2013-02-14 12:50:00,36.0,19.1,-100.00,North,-999,-999.0,-999.0,50,-99.99,,,-99.99,WSDL version 420,2013-02-14 19:50:00,
2013-02-14 12:55:00,36.0,19.1,-100.00,North,-999,-999.0,-999.0,50,-99.99,,,-99.99,WSDL version 420,2013-02-14 19:55:00,
2013-02-14 13:00:00,35.8,19.0,-100.00,North,-999,-999.0,-999.0,50,-99.99,,,-99.99,WSDL version 420,2013-02-14 20:00:00,
2013-02-14 13:05:00,35.8,19.0,-100.00,North,-999,-999.0,-999.0,50,-99.99,,,-99.99,WSDL version 420,2013-02-14 20:05:00,
2013-02-14 13:10:00,35.8,19.0,-100.00,North,-999,-999.0,-999.0,50,-99.99,,,-99.99,WSDL version 420,2013-02-14 20:10:00,
2013-02-14 13:15:00,35.8,19.0,-100.00,North,-999,-999.0,-999.0,50,-99.99,,,-99.99,WSDL version 420,2013-02-14 20:15:00,
2013-02-14 13:20:00,35.7,18.9,-100.00,North,-999,-999.0,-999.0,50,-99.99,,,-99.99,WSDL version 420,2013-02-14 20:20:00,
2013-02-14 13:25:00,35.6,18.8,-100.00,North,-999,-999.0,-999.0,50,-99.99,,,-99.99,WSDL version 420,2013-02-14 20:25:00,
2013-02-14 13:30:00,35.6,18.8,-100.00,North,-999,-999.0,-999.0,50,-99.99,,,-99.99,WSDL version 420,2013-02-14 20:30:00,
2013-02-14 13:35:00,35.6,18.8,-100.00,North,-999,-999.0,-999.0,50,-99.99,,,-99.99,WSDL version 420,2013-02-14 20:35:00,
2013-02-14 13:40:00,35.7,18.9,-100.00,North,-999,-999.0,-999.0,50,-99.99,,,-99.99,WSDL version 420,2013-02-14 20:40:00,
2013-02-14 13:45:00,35.9,19.1,-100.00,North,-999,-999.0,-999.0,50,-99.99,,,-99.99,WSDL version 420,2013-02-14 20:45:00,
2013-02-14 13:50:00,36.1,19.3,-100.00,North,-999,-999.0,-999.0,50,-99.99,,,-99.99,WSDL version 420,2013-02-14 20:50:00,
2013-02-14 13:55:00,36.1,19.3,-100.00,North,-999,-999.0,-999.0,50,-99.99,,,-99.99,WSDL version 420,2013-02-14 20:55:00,
2013-02-14 14:00:00,36.0,19.2,-100.00,North,-999,-999.0,-999.0,50,-99.99,,,-99.99,WSDL version 420,2013-02-14 21:00:00,
2013-02-14 14:05:00,36.1,19.3,-100.00,North,-999,-999.0,-999.0,50,-99.99,,,-99.99,WSDL version 420,2013-02-14 21:05:00,
2013-02-14 14:10:00,36.2,19.3,-100.00,North,-999,-999.0,-999.0,50,-99.99,,,-99.99,WSDL version 420,2013-02-14 21:10:00,
2013-02-14 14:15:00,36.3,19.5,-100.00,North,-999,-999.0,-999.0,50,-99.99,,,-99.99,WSDL version 420,2013-02-14 21:15:00,
2013-02-14 14:20:00,36.4,19.5,-100.00,North,-999,-999.0,-999.0,50,-99.99,,,-99.99,WSDL version 420,2013-02-14 21:20:00,
2013-02-14 14:25:00,36.5,19.5,-100.00,North,-999,-999.0,-999.0,49,-99.99,,,-99.99,WSDL version 420,2013-02-14 21:25:00,
2013-02-14 14:30:00,36.5,19.2,-100.00,North,-999,-999.0,-999.0,49,-99.99,,,-99.99,WSDL version 420,2013-02-14 21:30:00,
2013-02-14 14:35:00,36.3,19.0,-100.00,North,-999,-999.0,-999.0,49,-99.99,,,-99.99,WSDL version 420,2013-02-14 21:35:00,
2013-02-14 14:40:00,36.3,19.0,-100.00,North,-999,-999.0,-999.0,49,-99.99,,,-99.99,WSDL version 420,2013-02-14 21:40:00,
2013-02-14 14:45:00,36.3,19.0,-100.00,North,-999,-999.0,-999.0,49,-99.99,,,-99.99,WSDL version 420,2013-02-14 21:45:00,
2013-02-14 14:50:00,36.4,19.0,-100.00,North,-999,-999.0,-999.0,49,-99.99,,,-99.99,WSDL version 420,2013-02-14 21:50:00,
2013-02-14 14:55:00,36.3,18.9,-100.00,North,-999,-999.0,-999.0,49,-99.99,,,-99.99,WSDL version 420,2013-02-14 21:55:00,
2013-02-14 15:00:00,36.4,18.7,-100.00,North,-999,-999.0,-999.0,48,-99.99,,,-99.99,WSDL version 420,2013-02-14 22:00:00,
2013-02-14 15:13:00,36.3,18.5,-100.00,North,-999,-999.0,-999.0,48,-99.99,,,-99.99,WSDL version 420,2013-02-14 22:13:00,
2013-02-14 15:18:00,36.3,18.5,-100.00,North,-999,-999.0,-999.0,48,-99.99,,,-99.99,WSDL version 420,2013-02-14 22:18:00,
2013-02-14 15:23:00,36.3,18.9,-100.00,North,-999,-999.0,-999.0,49,-99.99,,,-99.99,WSDL version 420,2013-02-14 22:23:00,
2013-02-14 15:28:00,36.3,19.0,-100.00,North,-999,-999.0,-999.0,49,-99.99,,,-99.99,WSDL version 420,2013-02-14 22:28:00,
2013-02-14 15:33:00,36.3,19.0,-100.00,North,-999,-999.0,-999.0,49,-99.99,,,-99.99,WSDL version 420,2013-02-14 22:33:00,
2013-02-14 15:38:00,36.2,18.9,-100.00,North,-999,-999.0,-999.0,50,-99.99,,,-99.99,WSDL version 420,2013-02-14 22:38:00,
2013-02-14 15:43:00,35.9,19.1,-100.00,North,-999,-999.0,-999.0,50,-99.99,,,-99.99,WSDL version 420,2013-02-14 22:43:00,
2013-02-14 15:48:00,35.8,19.0,-100.00,North,-999,-999.0,-999.0,50,-99.99,,,-99.99,WSDL version 420,2013-02-14 22:48:00,
2013-02-14 15:53:00,35.4,18.6,-100.00,North,-999,-999.0,-999.0,50,-99.99,,,-99.99,WSDL version 420,2013-02-14 22:53:00,
2013-02-14 15:58:00,35.0,18.3,-100.00,North,-999,-999.0,-999.0,50,-99.99,,,-99.99,WSDL version 420,2013-02-14 22:58:00,
2013-02-14 16:03:00,34.7,18.2,-100.00,North,-999,-999.0,-999.0,51,-99.99,,,-99.99,WSDL version 420,2013-02-14 23:03:00,
2013-02-14 16:08:00,34.3,18.1,-100.00,North,-999,-999.0,-999.0,51,-99.99,,,-99.99,WSDL version 420,2013-02-14 23:08:00,
2013-02-14 16:13:00,33.9,17.8,-100.00,North,-999,-999.0,-999.0,52,-99.99,,,-99.99,WSDL version 420,2013-02-14 23:13:00,
2013-02-14 16:18:00,33.4,17.7,-100.00,North,-999,-999.0,-999.0,52,-99.99,,,-99.99,WSDL version 420,2013-02-14 23:18:00,
2013-02-14 16:23:00,33.1,17.7,-100.00,North,-999,-999.0,-999.0,53,-99.99,,,-99.99,WSDL version 420,2013-02-14 23:23:00,
2013-02-14 16:28:00,32.8,17.6,-100.00,North,-999,-999.0,-999.0,54,-99.99,,,-99.99,WSDL version 420,2013-02-14 23:28:00,
2013-02-14 16:33:00,32.7,17.9,-100.00,North,-999,-999.0,-999.0,54,-99.99,,,-99.99,WSDL version 420,2013-02-14 23:33:00,
2013-02-14 16:38:00,32.5,17.7,-100.00,North,-999,-999.0,-999.0,54,-99.99,,,-99.99,WSDL version 420,2013-02-14 23:38:00,
2013-02-14 16:43:00,32.2,17.5,-100.00,North,-999,-999.0,-999.0,54,-99.99,,,-99.99,WSDL version 420,2013-02-14 23:43:00,
2013-02-14 16:48:00,32.2,17.6,-100.00,North,-999,-999.0,-999.0,55,-99.99,,,-99.99,WSDL version 420,2013-02-14 23:48:00,
2013-02-14 16:53:00,32.1,18.7,-100.00,North,-999,-999.0,-999.0,55,-99.99,,,-99.99,WSDL version 420,2013-02-14 23:53:00,
2013-02-14 16:58:00,32.0,19.2,-100.00,North,-999,-999.0,-999.0,55,-99.99,,,-99.99,WSDL version 420,2013-02-14 23:58:00,
2013-02-14 17:03:00,31.8,19.1,-100.00,North,-999,-999.0,-999.0,55,-99.99,,,-99.99,WSDL version 420,2013-02-15 00:03:00,
2013-02-14 17:08:00,31.8,19.1,-100.00,North,-999,-999.0,-999.0,55,-99.99,,,-99.99,WSDL version 420,2013-02-15 00:08:00,
2013-02-14 17:13:00,31.7,19.1,-100.00,North,-999,-999.0,-999.0,55,-99.99,,,-99.99,WSDL version 420,2013-02-15 00:13:00,
2013-02-14 17:18:00,31.7,19.3,-100.00,North,-999,-999.0,-999.0,56,-99.99,,,-99.99,WSDL version 420,2013-02-15 00:18:00,
2013-02-14 17:23:00,31.6,19.3,-100.00,North,-999,-999.0,-999.0,56,-99.99,,,-99.99,WSDL version 420,2013-02-15 00:23:00,
2013-02-14 17:28:00,31.4,19.1,-100.00,North,-999,-999.0,-999.0,56,-99.99,,,-99.99,WSDL version 420,2013-02-15 00:28:00,
2013-02-14 17:33:00,31.3,19.0,-100.00,North,-999,-999.0,-999.0,56,-99.99,,,-99.99,WSDL version 420,2013-02-15 00:33:00,
2013-02-14 17:38:00,31.3,19.0,-100.00,North,-999,-999.0,-999.0,56,-99.99,,,-99.99,WSDL version 420,2013-02-15 00:38:00,
2013-02-14 17:43:00,31.3,19.0,-100.00,North,-999,-999.0,-999.0,56,-99.99,,,-99.99,WSDL version 420,2013-02-15 00:43:00,
2013-02-14 17:48:00,31.1,18.8,-100.00,North,-999,-999.0,-999.0,56,-99.99,,,-99.99,WSDL version 420,2013-02-15 00:48:00,
2013-02-14 17:53:00,31.1,18.8,-100.00,North,-999,-999.0,-999.0,56,-99.99,,,-99.99,WSDL version 420,2013-02-15 00:53:00,
2013-02-14 17:58:00,30.9,18.7,-100.00,North,-999,-999.0,-999.0,57,-99.99,,,-99.99,WSDL version 420,2013-02-15 00:58:00,
2013-02-14 18:03:00,30.9,19.0,-100.00,North,-999,-999.0,-999.0,57,-99.99,,,-99.99,WSDL version 420,2013-02-15 01:03:00,
2013-02-14 18:08:00,30.9,19.0,-100.00,North,-999,-999.0,-999.0,57,-99.99,,,-99.99,WSDL version 420,2013-02-15 01:08:00,
2013-02-14 18:13:00,30.7,18.8,-100.00,North,-999,-999.0,-999.0,57,-99.99,,,-99.99,WSDL version 420,2013-02-15 01:13:00,
2013-02-14 18:18:00,30.8,18.8,-100.00,North,-999,-999.0,-999.0,57,-99.99,,,-99.99,WSDL version 420,2013-02-15 01:18:00,
2013-02-14 18:23:00,30.7,18.8,-100.00,North,-999,-999.0,-999.0,57,-99.99,,,-99.99,WSDL version 420,2013-02-15 01:23:00,
2013-02-14 18:28:00,30.7,18.8,-100.00,North,-999,-999.0,-999.0,57,-99.99,,,-99.99,WSDL version 420,2013-02-15 01:28:00,
2013-02-14 18:33:00,30.6,18.7,-100.00,North,-999,-999.0,-999.0,57,-99.99,,,-99.99,WSDL version 420,2013-02-15 01:33:00,
2013-02-14 18:38:00,30.6,18.7,-100.00,North,-999,-999.0,-999.0,58,-99.99,,,-99.99,WSDL version 420,2013-02-15 01:38:00,
2013-02-14 18:43:00,30.6,19.0,-100.00,North,-999,-999.0,-999.0,58,-99.99,,,-99.99,WSDL version 420,2013-02-15 01:43:00,
2013-02-14 18:48:00,30.6,19.0,-100.00,North,-999,-999.0,-999.0,58,-99.99,,,-99.99,WSDL version 420,2013-02-15 01:48:00,
2013-02-14 18:53:00,30.4,18.9,-100.00,North,-999,-999.0,-999.0,58,-99.99,,,-99.99,WSDL version 420,2013-02-15 01:53:00,
2013-02-14 18:58:00,30.3,18.9,-100.00,North,-999,-999.0,-999.0,59,-99.99,,,-99.99,WSDL version 420,2013-02-15 01:58:00,
2013-02-14 19:03:00,30.2,19.0,-100.00,North,-999,-999.0,-999.0,59,-99.99,,,-99.99,WSDL version 420,2013-02-15 02:03:00,
2013-02-14 19:08:00,30.2,19.1,-100.00,North,-999,-999.0,-999.0,60,-99.99,,,-99.99,WSDL version 420,2013-02-15 02:08:00,
2013-02-14 19:13:00,30.0,19.2,-100.00,North,-999,-999.0,-999.0,60,-99.99,,,-99.99,WSDL version 420,2013-02-15 02:13:00,
2013-02-14 19:18:00,29.9,19.1,-100.00,North,-999,-999.0,-999.0,60,-99.99,,,-99.99,WSDL version 420,2013-02-15 02:18:00,
2013-02-14 19:23:00,29.8,19.2,-100.00,North,-999,-999.0,-999.0,61,-99.99,,,-99.99,WSDL version 420,2013-02-15 02:23:00,
2013-02-14 19:28:00,29.7,19.2,-100.00,North,-999,-999.0,-999.0,61,-99.99,,,-99.99,WSDL version 420,2013-02-15 02:28:00,
2013-02-14 19:33:00,29.6,19.5,-100.00,North,-999,-999.0,-999.0,62,-99.99,,,-99.99,WSDL version 420,2013-02-15 02:33:00,
2013-02-14 19:38:00,29.5,19.4,-100.00,North,-999,-999.0,-999.0,62,-99.99,,,-99.99,WSDL version 420,2013-02-15 02:38:00,
2013-02-14 19:43:00,29.4,19.5,-100.00,North,-999,-999.0,-999.0,63,-99.99,,,-99.99,WSDL version 420,2013-02-15 02:43:00,
2013-02-14 19:48:00,29.3,19.5,-100.00,North,-999,-999.0,-999.0,63,-99.99,,,-99.99,WSDL version 420,2013-02-15 02:48:00,
2013-02-14 19:53:00,29.3,19.5,-100.00,North,-999,-999.0,-999.0,63,-99.99,,,-99.99,WSDL version 420,2013-02-15 02:53:00,
2013-02-14 19:58:00,29.2,19.5,-100.00,North,-999,-999.0,-999.0,64,-99.99,,,-99.99,WSDL version 420,2013-02-15 02:58:00,
2013-02-14 20:03:00,29.2,19.7,-100.00,North,-999,-999.0,-999.0,64,-99.99,,,-99.99,WSDL version 420,2013-02-15 03:03:00,
2013-02-14 20:08:00,29.1,19.7,-100.00,North,-999,-999.0,-999.0,64,-99.99,,,-99.99,WSDL version 420,2013-02-15 03:08:00,
2013-02-14 20:13:00,29.1,19.7,-100.00,North,-999,-999.0,-999.0,64,-99.99,,,-99.99,WSDL version 420,2013-02-15 03:13:00,
2013-02-14 20:18:00,29.1,19.8,-100.00,North,-999,-999.0,-999.0,65,-99.99,,,-99.99,WSDL version 420,2013-02-15 03:18:00,
2013-02-14 20:23:00,29.0,19.9,-100.00,North,-999,-999.0,-999.0,65,-99.99,,,-99.99,WSDL version 420,2013-02-15 03:23:00,
2013-02-14 20:28:00,28.9,19.8,-100.00,North,-999,-999.0,-999.0,65,-99.99,,,-99.99,WSDL version 420,2013-02-15 03:28:00,
2013-02-14 20:33:00,28.9,19.8,-100.00,North,-999,-999.0,-999.0,65,-99.99,,,-99.99,WSDL version 420,2013-02-15 03:33:00,
2013-02-14 20:38:00,28.9,19.8,-100.00,North,-999,-999.0,-999.0,65,-99.99,,,-99.99,WSDL version 420,2013-02-15 03:38:00,
2013-02-14 20:43:00,28.9,20.1,-100.00,North,-999,-999.0,-999.0,66,-99.99,,,-99.99,WSDL version 420,2013-02-15 03:43:00,
2013-02-14 20:48:00,28.8,20.0,-100.00,North,-999,-999.0,-999.0,66,-99.99,,,-99.99,WSDL version 420,2013-02-15 03:48:00,
2013-02-14 20:53:00,28.8,20.0,-100.00,North,-999,-999.0,-999.0,66,-99.99,,,-99.99,WSDL version 420,2013-02-15 03:53:00,
2013-02-14 20:58:00,28.8,20.0,-100.00,North,-999,-999.0,-999.0,66,-99.99,,,-99.99,WSDL version 420,2013-02-15 03:58:00,
2013-02-14 21:13:00,28.8,20.0,-100.00,North,-999,-999.0,-999.0,67,-99.99,,,-99.99,WSDL version 420,2013-02-15 04:13:00,
2013-02-14 21:18:00,28.8,20.3,-100.00,North,-999,-999.0,-999.0,67,-99.99,,,-99.99,WSDL version 420,2013-02-15 04:18:00,
2013-02-14 21:23:00,28.8,20.3,-100.00,North,-999,-999.0,-999.0,67,-99.99,,,-99.99,WSDL version 420,2013-02-15 04:23:00,
2013-02-14 21:28:00,28.6,20.1,-100.00,North,-999,-999.0,-999.0,67,-99.99,,,-99.99,WSDL version 420,2013-02-15 04:28:00,
2013-02-14 21:33:00,28.6,20.1,-100.00,North,-999,-999.0,-999.0,67,-99.99,,,-99.99,WSDL version 420,2013-02-15 04:33:00,
2013-02-14 21:38:00,28.6,20.1,-100.00,North,-999,-999.0,-999.0,67,-99.99,,,-99.99,WSDL version 420,2013-02-15 04:38:00,
2013-02-14 21:43:00,28.6,20.4,-100.00,North,-999,-999.0,-999.0,68,-99.99,,,-99.99,WSDL version 420,2013-02-15 04:43:00,
2013-02-14 21:48:00,28.6,20.4,-100.00,North,-999,-999.0,-999.0,68,-99.99,,,-99.99,WSDL version 420,2013-02-15 04:48:00,
2013-02-14 21:53:00,28.6,20.4,-100.00,North,-999,-999.0,-999.0,68,-99.99,,,-99.99,WSDL version 420,2013-02-15 04:53:00,
2013-02-14 21:58:00,28.6,20.4,-100.00,North,-999,-999.0,-999.0,68,-99.99,,,-99.99,WSDL version 420,2013-02-15 04:58:00,
2013-02-14 22:00:00,28.6,20.4,-100.00,North,-999,-999.0,-999.0,68,-99.99,,,-99.99,WSDL version 420,2013-02-15 05:00:00,
2013-02-14 22:01:00,28.6,20.4,-100.00,North,-999,-999.0,-999.0,68,-99.99,,,-99.99,WSDL version 420,2013-02-15 05:01:00,
2013-02-14 22:02:00,28.6,20.4,-100.00,North,-999,-999.0,-999.0,68,-99.99,,,-99.99,WSDL version 420,2013-02-15 05:02:00,
2013-02-14 22:07:00,28.4,20.5,-100.00,North,-999,-999.0,-999.0,69,-99.99,,,-99.99,WSDL version 420,2013-02-15 05:07:00,
2013-02-14 22:12:00,28.4,20.5,-100.00,North,-999,-999.0,-999.0,69,-99.99,,,-99.99,WSDL version 420,2013-02-15 05:12:00,
2013-02-14 22:17:00,28.4,20.5,-100.00,North,-999,-999.0,-999.0,69,-99.99,,,-99.99,WSDL version 420,2013-02-15 05:17:00,
2013-02-14 22:22:00,28.4,20.5,-100.00,North,-999,-999.0,-999.0,69,-99.99,,,-99.99,WSDL version 420,2013-02-15 05:22:00,
2013-02-14 22:27:00,28.4,20.5,-100.00,North,-999,-999.0,-999.0,69,-99.99,,,-99.99,WSDL version 420,2013-02-15 05:27:00,
2013-02-14 22:32:00,28.3,20.4,-100.00,North,-999,-999.0,-999.0,69,-99.99,,,-99.99,WSDL version 420,2013-02-15 05:32:00,
2013-02-14 22:37:00,28.2,20.4,-100.00,North,-999,-999.0,-999.0,69,-99.99,,,-99.99,WSDL version 420,2013-02-15 05:37:00,
2013-02-14 22:42:00,28.0,20.2,-100.00,North,-999,-999.0,-999.0,69,-99.99,,,-99.99,WSDL version 420,2013-02-15 05:42:00,
2013-02-14 22:47:00,28.0,20.2,-100.00,North,-999,-999.0,-999.0,69,-99.99,,,-99.99,WSDL version 420,2013-02-15 05:47:00,
2013-02-14 22:52:00,28.0,20.1,-100.00,North,-999,-999.0,-999.0,69,-99.99,,,-99.99,WSDL version 420,2013-02-15 05:52:00,
2013-02-14 22:57:00,27.9,20.0,-100.00,North,-999,-999.0,-999.0,69,-99.99,,,-99.99,WSDL version 420,2013-02-15 05:57:00,
2013-02-14 23:02:00,27.9,20.0,-100.00,North,-999,-999.0,-999.0,69,-99.99,,,-99.99,WSDL version 420,2013-02-15 06:02:00,
2013-02-14 23:07:00,27.7,19.9,-100.00,North,-999,-999.0,-999.0,69,-99.99,,,-99.99,WSDL version 420,2013-02-15 06:07:00,
2013-02-14 23:12:00,27.7,19.8,-100.00,North,-999,-999.0,-999.0,69,-99.99,,,-99.99,WSDL version 420,2013-02-15 06:12:00,
2013-02-14 23:17:00,27.7,20.1,-100.00,North,-999,-999.0,-999.0,70,-99.99,,,-99.99,WSDL version 420,2013-02-15 06:17:00,
2013-02-14 23:22:00,27.7,20.1,-100.00,North,-999,-999.0,-999.0,70,-99.99,,,-99.99,WSDL version 420,2013-02-15 06:22:00,
2013-02-14 23:27:00,27.7,20.1,-100.00,North,-999,-999.0,-999.0,70,-99.99,,,-99.99,WSDL version 420,2013-02-15 06:27:00,
2013-02-14 23:32:00,27.6,20.1,-100.00,North,-999,-999.0,-999.0,70,-99.99,,,-99.99,WSDL version 420,2013-02-15 06:32:00,
2013-02-14 23:37:00,27.5,20.0,-100.00,North,-999,-999.0,-999.0,70,-99.99,,,-99.99,WSDL version 420,2013-02-15 06:37:00,
2013-02-14 23:42:00,27.5,20.0,-100.00,North,-999,-999.0,-999.0,70,-99.99,,,-99.99,WSDL version 420,2013-02-15 06:42:00,
2013-02-14 23:47:00,27.4,19.9,-100.00,North,-999,-999.0,-999.0,70,-99.99,,,-99.99,WSDL version 420,2013-02-15 06:47:00,
2013-02-14 23:52:00,27.3,19.8,-100.00,North,-999,-999.0,-999.0,70,-99.99,,,-99.99,WSDL version 420,2013-02-15 06:52:00,
2013-02-14 23:57:00,27.3,19.8,-100.00,North,-999,-999.0,-999.0,70,-99.99,,,-99.99,WSDL version 420,2013-02-15 06:57:00,